Time;durP1;ratioP1;P1;durP2;ratioP2;P2;SDS_P1;SDS_P2;PMS_P1;PMS_P2;Temp;Humidity;BMP_temperature;BMP_pressure;BME280_temperature;BME280_humidity;BME280_pressure;Samples;Min_cycle;Max_cycle;Signal;HPM_P1;HPM_P2
2024/01/09 00:02:21;;;;;;;62.03;31.10;;;-9.60;99.90;;;;;;10534607;28;20940;-85
2024/01/09 00:07:24;;;;;;;56.83;29.47;;;-8.70;99.90;;;;;;10555732;28;20249;-85
2024/01/09 00:12:26;;;;;;;56.03;28.57;;;-8.40;99.90;;;;;;10519032;28;20237;-85
2024/01/09 00:17:29;;;;;;;52.90;29.10;;;-8.50;99.90;;;;;;10528170;28;20677;-85
2024/01/09 00:22:31;;;;;;;47.03;24.07;;;-8.20;99.90;;;;;;10535729;28;20269;-85
2024/01/09 00:27:34;;;;;;;55.40;29.07;;;-8.40;99.90;;;;;;10537383;28;20252;-85
2024/01/09 00:32:37;;;;;;;63.43;32.80;;;-8.20;99.90;;;;;;10555220;28;20229;-85
2024/01/09 00:37:40;;;;;;;58.47;32.30;;;-8.80;99.90;;;;;;10535972;28;20262;-85
2024/01/09 00:42:43;;;;;;;60.03;30.53;;;-9.20;99.90;;;;;;10535167;28;20622;-85
2024/01/09 00:47:45;;;;;;;80.17;38.20;;;-9.00;99.90;;;;;;10534320;28;20653;-85
2024/01/09 00:52:48;;;;;;;78.57;39.20;;;-9.50;99.90;;;;;;10534983;28;20690;-85
2024/01/09 00:57:50;;;;;;;79.37;40.97;;;-9.50;99.90;;;;;;10535070;28;20761;-85
2024/01/09 01:02:53;;;;;;;73.47;37.07;;;-9.60;99.90;;;;;;10535256;28;20646;-85
2024/01/09 01:07:56;;;;;;;65.93;36.63;;;-9.10;99.90;;;;;;10533985;28;20283;-85
2024/01/09 01:12:58;;;;;;;62.77;31.97;;;-9.50;99.90;;;;;;10540922;28;20221;-86
2024/01/09 01:18:01;;;;;;;78.57;40.10;;;-9.30;99.90;;;;;;10576960;28;20258;-85
2024/01/09 01:23:03;;;;;;;75.67;37.30;;;-9.60;99.90;;;;;;10544272;28;20265;-85
2024/01/09 01:28:06;;;;;;;71.13;34.87;;;-9.40;99.90;;;;;;10493010;28;20244;-85
2024/01/09 01:33:08;;;;;;;81.33;38.97;;;-9.30;99.90;;;;;;10494401;28;20225;-85
2024/01/09 01:38:11;;;;;;;72.23;35.83;;;-9.00;99.90;;;;;;10491720;28;20238;-85
2024/01/09 01:43:14;;;;;;;73.77;36.90;;;-9.50;99.90;;;;;;10497208;28;20283;-85
2024/01/09 01:48:16;;;;;;;81.30;39.87;;;-9.50;99.90;;;;;;10501380;28;20258;-85
2024/01/09 01:53:19;;;;;;;75.07;36.03;;;-9.50;99.90;;;;;;10491649;28;20285;-85
2024/01/09 01:58:24;;;;;;;64.67;31.10;;;-9.10;99.90;;;;;;10491598;28;20287;-85
2024/01/09 02:03:27;;;;;;;55.13;28.77;;;-8.90;99.90;;;;;;10491459;28;20283;-85
2024/01/09 02:08:31;;;;;;;77.20;37.13;;;-9.10;99.90;;;;;;10473350;28;20705;-85
2024/01/09 02:13:34;;;;;;;76.73;36.13;;;-9.40;99.90;;;;;;10498134;28;20237;-85
2024/01/09 02:18:37;;;;;;;71.43;35.67;;;-9.60;99.90;;;;;;10473511;28;20234;-85
2024/01/09 02:23:39;;;;;;;71.80;36.93;;;-9.30;99.90;;;;;;10526928;28;20248;-85
2024/01/09 02:28:54;;;;;;;71.90;39.20;;;-9.50;99.90;;;;;;10514007;28;20861;-85
2024/01/09 02:33:57;;;;;;;81.77;38.57;;;-9.40;99.90;;;;;;10532615;28;20233;-85
2024/01/09 02:39:00;;;;;;;76.47;36.50;;;-9.70;99.90;;;;;;10514078;28;20283;-85
2024/01/09 02:44:03;;;;;;;65.40;34.87;;;-9.70;99.90;;;;;;10532269;28;20699;-85
2024/01/09 02:49:05;;;;;;;67.30;34.37;;;-9.50;99.90;;;;;;10497457;28;20326;-85
2024/01/09 02:54:08;;;;;;;75.70;36.03;;;-9.40;99.90;;;;;;10513591;28;20255;-85
2024/01/09 02:59:10;;;;;;;69.77;32.13;;;-9.50;99.90;;;;;;10534813;28;20327;-85
2024/01/09 03:04:13;;;;;;;62.13;31.70;;;-9.40;99.90;;;;;;10539551;28;20237;-85
2024/01/09 03:09:16;;;;;;;72.50;32.40;;;-8.90;99.90;;;;;;10539345;28;20261;-85
2024/01/09 03:14:19;;;;;;;72.67;35.33;;;-8.80;99.90;;;;;;10538871;28;20294;-85
2024/01/09 03:19:22;;;;;;;73.93;35.10;;;-8.60;99.90;;;;;;10539011;28;20259;-85
2024/01/09 03:24:24;;;;;;;76.17;37.60;;;-9.00;99.90;;;;;;10539371;28;20274;-85
2024/01/09 03:29:27;;;;;;;68.10;33.70;;;-9.30;99.90;;;;;;10538322;28;20249;-85
2024/01/09 03:34:29;;;;;;;61.80;31.90;;;-9.40;99.90;;;;;;10538932;28;20229;-85
2024/01/09 03:39:32;;;;;;;69.77;35.13;;;-8.50;99.90;;;;;;10520415;28;20220;-85
2024/01/09 03:44:34;;;;;;;67.67;33.40;;;-8.60;99.90;;;;;;10520721;28;20229;-85
2024/01/09 03:49:37;;;;;;;64.10;32.27;;;-9.00;99.90;;;;;;10538461;28;20241;-85
2024/01/09 03:54:40;;;;;;;65.83;32.40;;;-9.10;99.90;;;;;;10538000;28;20301;-84
2024/01/09 03:59:42;;;;;;;68.30;33.77;;;-9.30;99.90;;;;;;10537618;28;20751;-85
2024/01/09 04:04:45;;;;;;;67.93;34.27;;;-9.00;99.90;;;;;;10519650;28;20294;-85
2024/01/09 04:09:47;;;;;;;68.20;35.03;;;-9.40;99.90;;;;;;10536444;28;20685;-85
2024/01/09 04:14:50;;;;;;;70.60;34.97;;;-9.40;99.90;;;;;;10537131;28;20234;-85
2024/01/09 04:19:52;;;;;;;75.43;36.33;;;-9.50;99.90;;;;;;10537221;28;20265;-85
2024/01/09 04:24:55;;;;;;;56.93;30.03;;;-9.40;99.90;;;;;;10518962;28;20240;-85
2024/01/09 04:29:58;;;;;;;52.50;28.23;;;-9.20;99.90;;;;;;10536293;28;20310;-85
2024/01/09 04:35:01;;;;;;;67.87;30.30;;;-9.10;99.90;;;;;;10536773;28;20283;-86
2024/01/09 04:40:04;;;;;;;77.53;34.10;;;-9.30;99.90;;;;;;10535514;28;20234;-85
2024/01/09 04:45:07;;;;;;;63.47;29.40;;;-9.10;99.90;;;;;;10517897;28;20619;-86
2024/01/09 04:50:09;;;;;;;67.40;32.07;;;-8.90;99.90;;;;;;10535528;28;20257;-85
2024/01/09 04:55:12;;;;;;;64.77;31.70;;;-8.90;99.90;;;;;;10517890;28;20298;-85
2024/01/09 05:00:14;;;;;;;75.10;37.30;;;-8.80;99.90;;;;;;10517276;28;20217;-85
2024/01/09 05:05:17;;;;;;;72.70;35.27;;;-9.40;99.90;;;;;;10535143;28;20236;-85
2024/01/09 05:10:20;;;;;;;60.63;29.70;;;-9.40;99.90;;;;;;10534253;28;21758;-85
2024/01/09 05:15:22;;;;;;;75.63;37.77;;;-9.50;99.90;;;;;;10534954;28;20233;-85
2024/01/09 05:20:24;;;;;;;61.23;31.43;;;-9.50;99.90;;;;;;10516374;28;20268;-85
2024/01/09 05:25:27;;;;;;;67.33;31.53;;;-9.30;99.90;;;;;;10533928;28;20290;-85
2024/01/09 05:30:29;;;;;;;75.30;37.13;;;-9.30;99.90;;;;;;10533750;28;20245;-85
2024/01/09 05:35:32;;;;;;;75.00;35.47;;;-9.40;99.90;;;;;;10533190;28;20225;-85
2024/01/09 05:40:34;;;;;;;70.83;33.20;;;-9.20;99.90;;;;;;10516223;28;20240;-85
2024/01/09 05:45:37;;;;;;;69.57;34.50;;;-9.00;99.90;;;;;;10533644;28;20229;-85
2024/01/09 05:50:39;;;;;;;74.03;38.73;;;-9.10;99.90;;;;;;10533373;28;20245;-84
2024/01/09 05:55:43;;;;;;;79.20;36.10;;;-9.20;99.90;;;;;;10533938;28;20270;-84
2024/01/09 06:00:45;;;;;;;61.97;30.37;;;-9.30;99.90;;;;;;10514501;28;20650;-84
2024/01/09 06:05:48;;;;;;;50.77;25.83;;;-9.30;99.90;;;;;;10532185;28;20290;-84
2024/01/09 06:10:51;;;;;;;79.60;36.00;;;-9.20;99.90;;;;;;10531017;28;20257;-84
2024/01/09 06:15:53;;;;;;;90.10;41.83;;;-8.80;99.90;;;;;;10532145;28;20229;-82
2024/01/09 06:20:56;;;;;;;24.87;13.60;;;-8.80;99.90;;;;;;10530074;28;20261;-84
2024/01/09 06:25:58;;;;;;;97.50;46.50;;;-5.70;99.90;;;;;;10514339;28;20233;-84
2024/01/09 06:31:01;;;;;;;90.00;45.37;;;-4.80;99.90;;;;;;10531812;28;20253;-84
2024/01/09 06:36:04;;;;;;;92.87;42.13;;;-6.20;99.90;;;;;;10531402;28;20202;-85
2024/01/09 06:41:06;;;;;;;86.43;43.60;;;-7.50;99.90;;;;;;10531628;28;20266;-85
2024/01/09 06:46:10;;;;;;;79.57;40.97;;;-8.20;99.90;;;;;;10530905;28;20229;-84
2024/01/09 06:51:12;;;;;;;85.83;40.97;;;-8.30;99.90;;;;;;10530962;28;20256;-84
2024/01/09 06:56:15;;;;;;;86.37;40.27;;;-8.40;99.90;;;;;;10531113;28;20301;-84
2024/01/09 07:01:18;;;;;;;96.73;43.77;;;-8.40;99.90;;;;;;10530345;28;20232;-84
2024/01/09 07:06:24;;;;;;;89.57;42.43;;;-7.80;99.90;;;;;;10513809;28;20875;-84
2024/01/09 07:11:26;;;;;;;86.40;41.53;;;-8.20;99.90;;;;;;10512785;28;20257;-83
2024/01/09 07:16:29;;;;;;;91.03;43.83;;;-8.50;99.90;;;;;;10530554;28;20625;-83
2024/01/09 07:21:31;;;;;;;80.87;37.17;;;-8.80;99.90;;;;;;10540698;28;20336;-83
2024/01/09 07:26:41;;;;;;;76.93;38.97;;;-9.00;99.90;;;;;;10525448;28;20225;-83
2024/01/09 07:31:44;;;;;;;53.93;28.70;;;-8.90;99.90;;;;;;10549110;28;20248;-83
2024/01/09 07:36:46;;;;;;;81.10;37.37;;;-8.10;99.90;;;;;;10569680;28;20289;-84
2024/01/09 07:41:49;;;;;;;88.50;33.27;;;-7.90;99.90;;;;;;10557924;28;20294;-89
2024/01/09 07:46:52;;;;;;;82.93;39.83;;;;;;;;;;10519843;28;20263;-88
2024/01/09 07:51:54;;;;;;;67.80;37.97;;;-2.70;99.90;;;;;;10522659;28;20625;-88
2024/01/09 07:56:57;;;;;;;80.47;40.77;;;-3.50;99.90;;;;;;10537468;28;20229;-88
2024/01/09 08:02:01;;;;;;;58.33;25.97;;;-4.00;99.90;;;;;;10537134;28;20237;-88
2024/01/09 08:07:04;;;;;;;95.50;45.93;;;;;;;;;;10547389;28;20241;-88
2024/01/09 08:12:06;;;;;;;115.70;63.27;;;0.30;99.90;;;;;;10536426;28;20245;-85
2024/01/09 08:17:10;;;;;;;116.10;58.97;;;-1.10;99.90;;;;;;10536144;28;20305;-86
2024/01/09 08:22:12;;;;;;;93.67;49.50;;;-1.90;99.90;;;;;;10537077;28;20318;-86
2024/01/09 08:27:15;;;;;;;84.00;44.53;;;-3.70;99.90;;;;;;10542076;28;20229;-85
2024/01/09 08:32:18;;;;;;;78.80;41.40;;;-3.80;99.90;;;;;;10538768;28;20229;-86
2024/01/09 08:37:21;;;;;;;86.60;44.70;;;-3.70;99.90;;;;;;10516234;28;20286;-86
2024/01/09 08:42:24;;;;;;;81.20;42.67;;;-4.00;99.90;;;;;;10556011;28;20689;-86
2024/01/09 08:47:27;;;;;;;93.27;47.47;;;-4.20;99.90;;;;;;10559512;28;20222;-87
2024/01/09 08:52:30;;;;;;;84.77;45.87;;;-4.80;99.90;;;;;;10535091;28;20270;-87
2024/01/09 08:57:32;;;;;;;89.53;47.73;;;-4.70;99.90;;;;;;10573891;28;20244;-87
2024/01/09 09:02:34;;;;;;;86.60;46.10;;;-5.30;99.90;;;;;;10535011;28;20252;-87
2024/01/09 09:07:37;;;;;;;80.90;45.53;;;-5.40;99.90;;;;;;10534218;28;20229;-87
2024/01/09 09:12:40;;;;;;;77.47;39.90;;;-5.60;99.90;;;;;;10544258;28;20278;-87
2024/01/09 09:23:27;;;;;;;102.73;52.97;;;-4.70;99.90;;;;;;9571003;23;10002832;-87
2024/01/09 09:28:30;;;;;;;88.60;44.53;;;-4.90;99.90;;;;;;10083062;29;20331;-87
2024/01/09 09:33:50;;;;;;;94.17;50.07;;;-5.10;99.90;;;;;;10074858;29;20240;-87
2024/01/09 09:38:53;;;;;;;100.40;52.63;;;-5.00;99.90;;;;;;10066486;29;20759;-87
2024/01/09 09:43:57;;;;;;;102.87;51.83;;;-4.90;99.90;;;;;;10055420;29;20244;-86
2024/01/09 09:49:01;;;;;;;49.83;22.73;;;-4.90;99.90;;;;;;10072037;29;20261;-88
2024/01/09 09:54:04;;;;;;;81.53;47.63;;;;;;;;;;10072397;29;20244;-87
2024/01/09 09:59:08;;;;;;;84.90;43.07;;;-1.40;99.90;;;;;;10074360;29;20236;-88
2024/01/09 10:04:39;;;;;;;84.10;48.27;;;-2.60;99.90;;;;;;10091004;29;20827;-87
2024/01/09 10:09:46;;;;;;;100.20;53.40;;;-2.70;99.90;;;;;;10086040;29;20276;-87
2024/01/09 10:15:09;;;;;;;89.90;48.10;;;-3.40;99.90;;;;;;10090781;29;20300;-87
2024/01/09 10:20:13;;;;;;;106.77;53.60;;;-3.90;99.90;;;;;;10090126;29;21020;-88
2024/01/09 10:25:17;;;;;;;92.00;46.77;;;-4.30;99.90;;;;;;10090070;29;20236;-88
2024/01/09 10:30:21;;;;;;;96.23;51.27;;;-3.80;99.90;;;;;;10107209;29;20252;-87
2024/01/09 10:35:25;;;;;;;98.60;49.30;;;-4.00;99.90;;;;;;10089966;29;20236;-87
2024/01/09 10:40:28;;;;;;;83.50;45.93;;;-4.10;99.90;;;;;;10090352;29;20240;-88
2024/01/09 10:45:31;;;;;;;86.07;45.00;;;-4.10;99.90;;;;;;10090185;29;20237;-87
2024/01/09 10:50:34;;;;;;;82.47;45.03;;;-3.40;99.90;;;;;;10089267;29;20264;-87
2024/01/09 10:55:38;;;;;;;95.13;47.23;;;-3.70;99.90;;;;;;10088867;29;20244;-87
2024/01/09 11:00:41;;;;;;;78.27;40.30;;;-4.00;99.90;;;;;;10073000;29;20322;-87
2024/01/09 11:05:48;;;;;;;69.40;35.80;;;-3.80;99.90;;;;;;10088896;29;20683;-87
2024/01/09 11:10:52;;;;;;;79.60;41.47;;;-3.60;99.90;;;;;;10088841;29;20268;-87
2024/01/09 11:15:56;;;;;;;84.20;44.60;;;-3.10;99.90;;;;;;10072358;29;20295;-87
2024/01/09 11:21:03;;;;;;;59.10;27.03;;;-3.40;99.90;;;;;;10091570;29;20328;-86
2024/01/09 11:26:06;;;;;;;80.70;40.97;;;-3.60;99.90;;;;;;10065831;29;20248;-84
2024/01/09 11:31:11;;;;;;;83.47;45.03;;;;;;;;;;10095333;29;20268;-84
2024/01/09 11:36:23;;;;;;;75.03;41.67;;;-0.70;99.90;;;;;;10080797;29;20253;-84
2024/01/09 11:41:32;;;;;;;72.17;37.70;;;-1.50;99.90;;;;;;10096107;29;20272;-83
2024/01/09 11:46:36;;;;;;;78.70;42.23;;;-1.80;99.90;;;;;;10094823;29;20277;-83
2024/01/09 11:51:39;;;;;;;79.33;40.20;;;-2.40;99.90;;;;;;10100734;29;20260;-83
2024/01/09 11:56:41;;;;;;;69.43;38.63;;;-2.30;99.90;;;;;;10093937;29;20300;-83
2024/01/09 12:01:47;;;;;;;94.00;47.27;;;-2.00;99.90;;;;;;10078673;29;20264;-83
2024/01/09 12:06:50;;;;;;;68.13;38.47;;;-2.30;99.90;;;;;;10078110;29;20248;-83
2024/01/09 12:11:52;;;;;;;80.93;42.17;;;-2.50;99.90;;;;;;10094447;29;20629;-83
2024/01/09 12:16:55;;;;;;;65.47;35.83;;;-2.40;99.90;;;;;;10055108;29;20229;-83
2024/01/09 12:21:57;;;;;;;57.73;34.17;;;-2.50;99.90;;;;;;10077753;29;20265;-83
2024/01/09 12:27:00;;;;;;;68.33;36.20;;;-2.20;99.90;;;;;;10056670;29;20300;-82
2024/01/09 12:32:03;;;;;;;64.23;33.80;;;-2.10;99.90;;;;;;10076001;29;20265;-82
2024/01/09 12:37:08;;;;;;;70.67;36.30;;;-2.00;99.90;;;;;;10061757;29;20252;-81
2024/01/09 12:42:13;;;;;;;59.83;31.27;;;-2.10;99.90;;;;;;10092812;29;20766;-82
2024/01/09 12:47:17;;;;;;;62.23;30.10;;;-2.10;99.90;;;;;;10093904;29;20232;-82
2024/01/09 12:52:20;;;;;;;72.00;36.83;;;-2.00;99.90;;;;;;10077083;29;20256;-82
2024/01/09 12:57:23;;;;;;;71.07;37.87;;;-2.10;99.90;;;;;;10093168;29;20288;-83
2024/01/09 13:02:26;;;;;;;71.67;36.00;;;-1.90;99.90;;;;;;10092137;29;20240;-83
2024/01/09 13:07:29;;;;;;;80.30;38.67;;;-1.90;99.90;;;;;;10076367;29;20244;-83
2024/01/09 13:12:31;;;;;;;62.90;31.13;;;-1.80;99.90;;;;;;10116307;29;20759;-82
2024/01/09 13:17:33;;;;;;;46.07;25.37;;;-2.10;99.90;;;;;;10068687;29;20229;-82
2024/01/09 13:22:36;;;;;;;48.77;23.77;;;-1.90;99.90;;;;;;10053894;29;20269;-82
2024/01/09 13:27:44;;;;;;;46.00;24.23;;;-2.00;99.90;;;;;;10087424;29;20225;-83
2024/01/09 13:32:47;;;;;;;58.87;29.63;;;-2.20;99.90;;;;;;10066539;29;20807;-82
2024/01/09 13:37:54;;;;;;;59.97;30.23;;;-2.20;99.90;;;;;;10070332;29;20237;-82
2024/01/09 13:42:57;;;;;;;59.23;28.23;;;-2.10;99.90;;;;;;10082974;29;20244;-82
2024/01/09 13:48:00;;;;;;;50.17;27.90;;;-2.10;99.90;;;;;;10091024;29;20240;-82
2024/01/09 13:53:03;;;;;;;47.73;27.80;;;-2.10;99.90;;;;;;10071659;29;20258;-82
2024/01/09 13:58:06;;;;;;;50.30;28.93;;;-1.70;99.90;;;;;;10055905;29;20241;-83
2024/01/09 14:03:09;;;;;;;68.90;37.73;;;-1.40;99.90;;;;;;10055464;29;20248;-82
2024/01/09 14:08:11;;;;;;;68.53;36.67;;;-1.80;99.90;;;;;;10071421;29;20297;-82
2024/01/09 14:13:14;;;;;;;64.27;33.97;;;-2.00;99.90;;;;;;10069295;29;20288;-83
2024/01/09 14:18:16;;;;;;;68.63;35.53;;;-2.50;99.90;;;;;;10057602;29;20744;-83
2024/01/09 14:23:19;;;;;;;57.73;31.00;;;-2.60;99.90;;;;;;10059371;29;20264;-83
2024/01/09 14:28:23;;;;;;;56.13;28.67;;;-2.60;99.90;;;;;;10069407;29;20640;-86
2024/01/09 14:33:25;;;;;;;74.73;37.30;;;-2.90;99.90;;;;;;10070807;29;20652;-86
2024/01/09 14:38:28;;;;;;;61.67;35.73;;;0.20;99.90;;;;;;10076180;29;20293;-86
2024/01/09 14:43:32;;;;;;;70.50;39.00;;;-1.20;99.90;;;;;;10055227;29;20245;-86
2024/01/09 14:48:34;;;;;;;68.23;34.33;;;-2.50;99.90;;;;;;10063306;29;20690;-85
2024/01/09 14:53:37;;;;;;;69.03;37.17;;;-0.10;99.90;;;;;;10063986;29;20320;-86
2024/01/09 14:58:40;;;;;;;79.93;39.43;;;-1.30;99.90;;;;;;10096306;29;20228;-86
2024/01/09 15:03:42;;;;;;;66.17;36.10;;;-2.20;99.90;;;;;;10096628;29;20244;-86
2024/01/09 15:08:45;;;;;;;70.83;37.13;;;-3.20;99.90;;;;;;10093280;29;20747;-85
2024/01/09 15:13:48;;;;;;;67.23;38.63;;;-3.70;99.90;;;;;;10078897;29;20712;-86
2024/01/09 15:18:51;;;;;;;73.57;39.00;;;-4.20;99.90;;;;;;10095409;29;20240;-85
2024/01/09 15:23:54;;;;;;;100.43;42.90;;;-4.80;99.90;;;;;;10095600;29;21067;-87
2024/01/09 15:28:57;;;;;;;109.07;48.87;;;-4.80;99.90;;;;;;10078671;29;20240;-86
2024/01/09 15:34:00;;;;;;;99.33;46.63;;;-5.20;99.90;;;;;;10095100;29;20296;-86
2024/01/09 15:39:02;;;;;;;95.33;42.57;;;-5.50;99.90;;;;;;10094286;29;20297;-86
2024/01/09 15:44:06;;;;;;;106.23;47.80;;;-5.20;99.90;;;;;;10094745;29;20261;-86
2024/01/09 15:49:09;;;;;;;93.70;45.93;;;-5.50;99.90;;;;;;10094021;29;20299;-86
2024/01/09 15:54:12;;;;;;;93.53;45.07;;;-5.80;99.90;;;;;;10094206;29;20289;-85
2024/01/09 15:59:14;;;;;;;88.97;45.00;;;-5.70;99.90;;;;;;10077746;29;20703;-86
2024/01/09 16:04:17;;;;;;;94.77;46.40;;;-5.80;99.90;;;;;;10094395;29;20242;-86
2024/01/09 16:09:20;;;;;;;100.63;50.87;;;;;;;;;;10096487;29;20288;-86
2024/01/09 16:14:23;;;;;;;110.83;51.63;;;-5.90;99.90;;;;;;10103223;29;20674;-85
2024/01/09 16:19:27;;;;;;;81.57;41.73;;;-6.00;99.90;;;;;;10078243;29;20256;-82
2024/01/09 16:24:29;;;;;;;82.00;44.10;;;-5.50;99.90;;;;;;10076578;29;21113;-83
2024/01/09 16:29:32;;;;;;;84.77;45.23;;;-5.60;99.90;;;;;;10094320;29;20328;-81
2024/01/09 16:34:34;;;;;;;100.83;50.00;;;-6.30;99.90;;;;;;10081017;29;20296;-82
2024/01/09 16:39:37;;;;;;;98.17;47.70;;;-6.80;99.90;;;;;;10092123;29;20300;-82
2024/01/09 16:44:39;;;;;;;91.47;45.53;;;-6.90;99.90;;;;;;10092559;29;20244;-82
2024/01/09 16:49:43;;;;;;;105.07;48.57;;;-7.10;99.90;;;;;;10066495;29;20289;-82
2024/01/09 16:54:46;;;;;;;91.23;48.43;;;;;;;;;;10092570;29;20241;-82
2024/01/09 16:59:49;;;;;;;98.93;49.10;;;-7.20;99.90;;;;;;10076680;29;20273;-82
2024/01/09 17:04:51;;;;;;;76.17;39.37;;;-7.20;99.90;;;;;;10094795;29;20209;-82
2024/01/09 17:09:54;;;;;;;83.00;40.73;;;-7.10;99.90;;;;;;10094922;29;20251;-82
2024/01/09 17:14:57;;;;;;;85.80;42.07;;;-6.80;99.90;;;;;;10093984;29;20627;-82
2024/01/09 17:19:59;;;;;;;85.30;42.50;;;-6.60;99.90;;;;;;10061139;29;20213;-82
2024/01/09 17:25:02;;;;;;;100.53;50.60;;;-6.50;99.90;;;;;;10076493;29;20308;-82
2024/01/09 17:30:09;;;;;;;97.40;49.37;;;-6.80;99.90;;;;;;10060822;29;20256;-82
2024/01/09 17:35:11;;;;;;;97.10;45.57;;;-6.90;99.90;;;;;;10093058;29;20643;-82
2024/01/09 17:40:15;;;;;;;92.33;45.60;;;-6.70;99.90;;;;;;10074802;29;20240;-82
2024/01/09 17:45:19;;;;;;;106.70;53.07;;;-6.80;99.90;;;;;;10091490;29;20316;-82
2024/01/09 17:50:21;;;;;;;112.10;52.90;;;-6.30;99.90;;;;;;10074845;29;20292;-82
2024/01/09 17:55:24;;;;;;;121.67;63.40;;;-6.50;99.90;;;;;;10074564;29;20265;-82
2024/01/09 18:00:27;;;;;;;123.93;63.03;;;-6.80;99.90;;;;;;10090980;29;20244;-81
2024/01/09 18:05:33;;;;;;;124.40;61.67;;;-6.70;99.90;;;;;;10123994;29;20382;-82
2024/01/09 18:10:36;;;;;;;176.27;74.70;;;-6.70;99.90;;;;;;10113681;29;20323;-81
2024/01/09 18:15:39;;;;;;;224.10;101.47;;;-6.50;99.90;;;;;;10115352;29;20281;-83
2024/01/09 18:20:42;;;;;;;186.60;86.37;;;-6.70;99.90;;;;;;10061531;29;20268;-83
2024/01/09 18:25:45;;;;;;;149.03;74.47;;;-6.80;99.90;;;;;;10089525;29;20296;-83
2024/01/09 18:30:47;;;;;;;171.57;77.03;;;-6.80;99.90;;;;;;10085277;29;20305;-83
2024/01/09 18:35:53;;;;;;;142.00;66.07;;;-6.40;99.90;;;;;;10082841;29;20232;-84
2024/01/09 18:40:55;;;;;;;194.83;86.40;;;-6.50;99.90;;;;;;10076975;29;20296;-84
2024/01/09 18:45:58;;;;;;;173.80;85.00;;;-6.60;99.90;;;;;;10072824;29;21087;-84
2024/01/09 18:51:01;;;;;;;181.93;92.37;;;-6.80;99.90;;;;;;10089153;29;20267;-84
2024/01/09 18:56:04;;;;;;;212.60;103.00;;;-7.20;99.90;;;;;;10079816;29;20234;-84
2024/01/09 19:01:07;;;;;;;154.67;73.87;;;-6.90;99.90;;;;;;10089465;29;20273;-84
2024/01/09 19:06:09;;;;;;;189.27;93.53;;;-6.10;99.90;;;;;;10088819;29;20232;-82
2024/01/09 19:11:16;;;;;;;171.03;80.10;;;-6.60;99.90;;;;;;10089124;29;20293;-82
2024/01/09 19:16:19;;;;;;;148.83;78.00;;;-6.60;99.90;;;;;;10088321;29;20304;-83
2024/01/09 19:21:21;;;;;;;177.93;85.03;;;-6.70;99.90;;;;;;10045803;29;20990;-82
2024/01/09 19:26:32;;;;;;;180.93;89.30;;;-6.60;99.90;;;;;;10095112;29;20261;-83
2024/01/09 19:31:41;;;;;;;186.77;92.93;;;-6.90;99.90;;;;;;10089127;29;20257;-81
2024/01/09 19:36:45;;;;;;;197.70;94.33;;;-7.00;99.90;;;;;;10056581;29;20261;-81
2024/01/09 19:41:48;;;;;;;195.63;96.67;;;-7.10;99.90;;;;;;10090493;29;20686;-81
2024/01/09 19:46:50;;;;;;;182.77;91.40;;;-7.40;99.90;;;;;;10095205;29;20236;-81
2024/01/09 19:51:53;;;;;;;239.00;118.57;;;-7.20;99.90;;;;;;10095095;29;20252;-82
2024/01/09 19:56:55;;;;;;;217.53;108.10;;;-7.00;99.90;;;;;;10095107;29;20295;-82
2024/01/09 20:01:58;;;;;;;219.03;106.80;;;-7.30;99.90;;;;;;9417609;29;10000297;-82
2024/01/09 20:07:00;;;;;;;224.70;111.63;;;-7.10;99.90;;;;;;10089083;29;20269;-81
2024/01/09 20:12:03;;;;;;;231.93;109.07;;;-7.50;99.90;;;;;;10091491;29;20324;-81
2024/01/09 20:17:06;;;;;;;203.37;97.50;;;-7.50;99.90;;;;;;10092077;29;20297;-82
2024/01/09 20:22:11;;;;;;;220.67;108.93;;;-7.40;99.90;;;;;;10095037;29;20321;-81
2024/01/09 20:27:15;;;;;;;206.23;106.60;;;-7.40;99.90;;;;;;10063775;29;20672;-82
2024/01/09 20:32:17;;;;;;;244.00;119.93;;;-7.30;99.90;;;;;;10090053;29;20272;-82
2024/01/09 20:37:21;;;;;;;242.37;121.90;;;-7.00;99.90;;;;;;10089890;29;20273;-82
2024/01/09 20:42:23;;;;;;;247.73;125.83;;;-7.00;99.90;;;;;;10073767;29;20245;-83
2024/01/09 20:47:27;;;;;;;249.53;124.10;;;-7.10;99.90;;;;;;10090786;29;20284;-83
2024/01/09 20:52:31;;;;;;;243.50;122.73;;;-6.90;99.90;;;;;;10089372;29;20260;-84
2024/01/09 20:57:34;;;;;;;259.63;127.13;;;-7.20;99.90;;;;;;10086143;29;20237;-83
2024/01/09 21:02:36;;;;;;;214.10;106.43;;;-7.20;99.90;;;;;;10089012;29;20278;-82
2024/01/09 21:07:39;;;;;;;237.00;120.40;;;-7.30;99.90;;;;;;10090165;29;20324;-82
2024/01/09 21:12:41;;;;;;;239.93;120.83;;;-7.30;99.90;;;;;;10089776;29;20264;-82
2024/01/09 21:17:44;;;;;;;243.90;121.17;;;-7.60;99.90;;;;;;10074694;29;20285;-84
2024/01/09 21:22:50;;;;;;;307.57;185.47;;;-7.60;99.90;;;;;;10077923;29;20793;-83
2024/01/09 21:27:54;;;;;;;301.73;183.57;;;-9.10;99.90;;;;;;10052812;29;20324;-81
2024/01/09 21:32:56;;;;;;;327.33;189.93;;;-9.90;99.90;;;;;;10060275;29;20252;-82
2024/01/09 21:37:59;;;;;;;329.70;193.57;;;;;;;;;;10081874;29;20239;-83
2024/01/09 21:43:03;;;;;;;336.03;194.50;;;;;;;;;;10074456;29;20246;-82
2024/01/09 21:48:11;;;;;;;336.03;192.53;;;-10.60;99.90;;;;;;10090827;29;20293;-83
2024/01/09 21:53:13;;;;;;;327.50;193.43;;;-10.60;99.90;;;;;;10055597;29;20262;-83
2024/01/09 21:58:16;;;;;;;345.87;197.23;;;-10.60;99.90;;;;;;10036374;29;20299;-81
2024/01/09 22:03:18;;;;;;;346.57;191.73;;;-10.60;99.90;;;;;;10051769;29;20253;-82
2024/01/09 22:08:21;;;;;;;172.00;71.33;;;-10.40;99.90;;;;;;10061791;29;20234;-83
2024/01/09 22:13:23;;;;;;;131.30;58.90;;;-10.50;99.90;;;;;;10073601;29;20316;-83
2024/01/09 22:18:26;;;;;;;189.87;87.70;;;;;;;;;;10091867;29;20300;-83
2024/01/09 22:23:29;;;;;;;227.57;105.93;;;-9.50;99.90;;;;;;10085110;29;20686;-82
2024/01/09 22:28:34;;;;;;;239.33;115.90;;;-9.10;99.90;;;;;;10089448;29;20642;-82
2024/01/09 22:33:37;;;;;;;269.87;129.10;;;-8.90;99.90;;;;;;10057617;29;20261;-83
2024/01/09 22:38:40;;;;;;;392.10;152.63;;;;;;;;;;10077659;29;20244;-83
2024/01/09 22:43:43;;;;;;;429.23;161.50;;;-8.30;99.90;;;;;;10096629;29;20212;-82
2024/01/09 22:48:45;;;;;;;322.47;153.03;;;-8.30;99.90;;;;;;10078835;29;20312;-83
2024/01/09 22:53:48;;;;;;;307.70;150.70;;;-8.20;99.90;;;;;;10112344;29;20713;-83
2024/01/09 22:58:50;;;;;;;220.30;105.57;;;-8.30;99.90;;;;;;10111372;29;20826;-83
2024/01/09 23:03:53;;;;;;;202.77;101.83;;;;;;;;;;10076821;29;20249;-83
2024/01/09 23:08:55;;;;;;;257.33;127.03;;;-7.30;99.90;;;;;;10087781;29;20237;-83
2024/01/09 23:13:58;;;;;;;239.77;115.93;;;-7.70;99.90;;;;;;10069834;29;20253;-83
2024/01/09 23:19:01;;;;;;;245.47;119.13;;;-7.80;99.90;;;;;;10079019;29;20622;-82
2024/01/09 23:24:04;;;;;;;251.03;127.30;;;-7.70;99.90;;;;;;10091230;29;20261;-83
2024/01/09 23:29:06;;;;;;;246.50;120.80;;;-7.70;99.90;;;;;;10075670;29;20233;-83
2024/01/09 23:34:10;;;;;;;240.17;119.77;;;-8.10;99.90;;;;;;10076034;29;20675;-83
2024/01/09 23:39:13;;;;;;;255.80;127.20;;;-8.10;99.90;;;;;;10088513;29;20293;-83
2024/01/09 23:44:16;;;;;;;235.80;112.70;;;-7.90;99.90;;;;;;10076699;29;20241;-82
2024/01/09 23:49:19;;;;;;;256.70;123.27;;;-7.50;99.90;;;;;;10078571;29;20254;-82
2024/01/09 23:54:21;;;;;;;241.40;114.13;;;-7.50;99.90;;;;;;10080487;29;20765;-83
2024/01/09 23:59:24;;;;;;;227.93;113.67;;;-7.80;99.90;;;;;;10068391;29;20230;-82
